Butte, Nebraska
Current Conditions -  °F | °C
As of 4:15 PM on Monday 20 Oct 2014 (Local Time) from KONL Reporting Station
Clear Clear  
Wind Chill: 73°   Ceiling: Unl
Heat Index: 73°   Visibility: 10mi
Dew Point: 42°   Wind: 5mph
Humidity: 33%   Direction: 180°S
Pressure: 30.06"   Gusts: NA
Location:  42.91°N, 98.85°W
Report Text: KONL 202115Z AUTO 18004KT 10SM CLR 23/05 A3006 RMK AO2 T02260054
Loading
Personal Weather Stations






























Interactive Weather Map
Tropical Storm Tracking
New forecast layout! Learn more

10-Day Weather Forecast

Advertisements
Track Severe Weather on mobile